createdAt,value
2022-08-26T00:00:19.627Z,5.00
2022-08-26T00:02:47.823Z,5.40
2022-08-26T00:05:16.321Z,4.75
2022-08-26T00:07:44.695Z,4.15
2022-08-26T00:10:15.126Z,4.57
2022-08-26T00:12:43.335Z,4.60
2022-08-26T00:15:13.824Z,5.57
2022-08-26T00:17:42.092Z,4.43
2022-08-26T00:20:11.625Z,4.65
2022-08-26T00:22:39.723Z,5.03
2022-08-26T00:25:10.263Z,4.88
2022-08-26T00:27:40.011Z,4.32
2022-08-26T00:30:11.414Z,5.40
2022-08-26T00:32:39.486Z,4.70
2022-08-26T00:35:08.729Z,4.47
2022-08-26T00:37:36.821Z,5.03
2022-08-26T00:40:06.268Z,4.78
2022-08-26T00:42:34.429Z,4.88
2022-08-26T00:45:04.447Z,5.60
2022-08-26T00:47:45.112Z,5.10
2022-08-26T00:50:19.738Z,4.65
2022-08-26T00:52:48.923Z,4.63
2022-08-26T00:55:22.228Z,5.10
2022-08-26T00:57:51.941Z,4.82
2022-08-26T01:00:25.738Z,5.70
2022-08-26T01:05:21.983Z,5.00
2022-08-26T01:07:50.066Z,4.95
2022-08-26T01:10:22.220Z,5.10
2022-08-26T01:13:04.773Z,5.03
2022-08-26T01:15:37.181Z,5.50
2022-08-26T01:18:07.530Z,4.78
2022-08-26T01:20:42.583Z,5.60
2022-08-26T01:23:13.684Z,4.93
2022-08-26T01:25:46.703Z,5.70
2022-08-26T01:28:18.679Z,5.50
2022-08-26T01:30:48.230Z,5.38
2022-08-26T01:33:20.833Z,5.55
2022-08-26T01:35:50.148Z,5.25
2022-08-26T01:38:21.471Z,5.18
2022-08-26T01:40:52.009Z,6.03
2022-08-26T01:43:27.087Z,5.82
2022-08-26T01:45:57.152Z,5.85
2022-08-26T01:48:29.536Z,5.40
2022-08-26T01:50:58.022Z,5.68
2022-08-26T01:53:28.294Z,5.10
2022-08-26T01:56:00.556Z,5.45
2022-08-26T01:58:36.058Z,5.35
2022-08-26T02:01:04.963Z,5.00
2022-08-26T02:03:34.124Z,5.25
2022-08-26T02:08:43.030Z,5.20
2022-08-26T02:11:12.193Z,5.53
2022-08-26T02:13:44.491Z,5.60
2022-08-26T02:16:14.009Z,5.85
2022-08-26T02:18:45.024Z,5.15
2022-08-26T02:21:15.318Z,5.13
2022-08-26T02:23:45.532Z,4.88
2022-08-26T02:26:16.496Z,5.30
2022-08-26T02:28:51.660Z,5.60
2022-08-26T02:31:20.287Z,5.78
2022-08-26T02:33:48.940Z,4.65
2022-08-26T02:36:20.975Z,5.28
2022-08-26T02:38:50.479Z,4.97
2022-08-26T02:41:20.279Z,4.82
2022-08-26T02:43:51.418Z,5.38
2022-08-26T02:46:27.913Z,4.65
2022-08-26T02:48:58.216Z,4.70
2022-08-26T02:51:27.064Z,4.70
2022-08-26T02:53:57.020Z,4.53
2022-08-26T02:56:25.843Z,5.07
2022-08-26T02:58:55.747Z,4.63
2022-08-26T03:01:25.907Z,5.28
2022-08-26T03:03:54.618Z,4.65
2022-08-26T03:06:24.389Z,5.00
2022-08-26T03:08:53.238Z,4.60
2022-08-26T03:11:23.729Z,4.78
2022-08-26T03:13:53.818Z,4.97
2022-08-26T03:16:22.027Z,4.97
2022-08-26T03:18:52.461Z,4.88
2022-08-26T03:21:21.780Z,5.05
2022-08-26T03:23:49.913Z,5.78
2022-08-26T03:26:18.321Z,4.80
2022-08-26T03:29:05.316Z,5.32
2022-08-26T03:31:33.507Z,4.70
2022-08-26T03:34:01.909Z,4.45
2022-08-26T03:36:30.063Z,4.97
2022-08-26T03:38:58.637Z,4.85
2022-08-26T03:41:26.744Z,5.30
2022-08-26T03:44:00.995Z,4.72
2022-08-26T03:46:30.088Z,5.38
2022-08-26T03:48:58.563Z,4.57
2022-08-26T03:51:27.544Z,5.07
2022-08-26T03:53:56.003Z,4.20
2022-08-26T03:56:25.316Z,5.55
2022-08-26T03:58:54.610Z,4.90
2022-08-26T04:01:24.572Z,4.32
2022-08-26T04:04:01.804Z,5.05
2022-08-26T04:06:33.964Z,5.20
2022-08-26T04:09:05.461Z,5.00
2022-08-26T04:11:38.295Z,5.55
2022-08-26T04:16:38.953Z,5.10
2022-08-26T04:19:07.512Z,4.68
2022-08-26T04:21:38.309Z,4.72
2022-08-26T04:24:11.376Z,4.20
2022-08-26T04:29:14.947Z,4.65
2022-08-26T04:31:44.536Z,5.00
2022-08-26T04:34:14.201Z,6.40
2022-08-26T04:36:44.134Z,4.75
2022-08-26T04:39:16.702Z,4.97
2022-08-26T04:41:47.747Z,4.00
2022-08-26T04:44:17.447Z,4.82
2022-08-26T04:46:47.037Z,4.75
2022-08-26T04:49:15.543Z,4.60
2022-08-26T04:51:43.942Z,4.90
2022-08-26T04:54:12.240Z,4.88
2022-08-26T04:56:42.468Z,4.45
2022-08-26T04:59:17.073Z,5.10
2022-08-26T05:01:49.697Z,4.78
2022-08-26T05:04:19.279Z,4.50
2022-08-26T05:06:47.788Z,4.40
2022-08-26T05:09:18.439Z,4.97
2022-08-26T05:11:48.435Z,4.25
2022-08-26T05:14:20.822Z,4.63
2022-08-26T05:16:50.333Z,4.40
2022-08-26T05:19:19.158Z,4.93
2022-08-26T05:21:48.533Z,4.97
2022-08-26T05:24:17.122Z,4.13
2022-08-26T05:26:47.258Z,4.15
2022-08-26T05:29:16.211Z,4.47
2022-08-26T05:31:45.018Z,4.30
2022-08-26T05:34:14.619Z,4.57
2022-08-26T05:36:43.328Z,3.95
2022-08-26T05:39:11.415Z,4.15
2022-08-26T05:41:42.329Z,4.68
2022-08-26T05:44:13.151Z,4.47
2022-08-26T05:46:44.819Z,4.32
2022-08-26T05:49:17.040Z,4.85
2022-08-26T05:51:47.642Z,4.45
2022-08-26T05:54:21.919Z,4.90
2022-08-26T05:56:50.791Z,5.20
2022-08-26T05:59:24.242Z,4.45
2022-08-26T06:01:54.740Z,4.63
2022-08-26T06:04:27.204Z,4.50
2022-08-26T06:06:56.512Z,4.75
2022-08-26T06:09:25.477Z,4.07
2022-08-26T06:11:53.663Z,4.50
2022-08-26T06:14:21.830Z,4.70
2022-08-26T06:16:49.935Z,5.63
2022-08-26T06:19:18.372Z,3.85
2022-08-26T06:21:54.104Z,4.90
2022-08-26T06:24:39.951Z,4.97
2022-08-26T06:27:11.398Z,4.68
2022-08-26T06:29:39.647Z,4.55
2022-08-26T06:32:08.811Z,4.57
2022-08-26T06:34:37.127Z,4.53
2022-08-26T06:37:07.276Z,4.57
2022-08-26T06:39:35.755Z,4.90
2022-08-26T06:42:09.222Z,4.75
2022-08-26T06:44:40.953Z,4.28
2022-08-26T06:47:09.260Z,4.05
2022-08-26T06:49:37.560Z,4.55
2022-08-26T06:52:07.403Z,4.07
2022-08-26T06:54:37.194Z,5.07
2022-08-26T06:57:07.581Z,4.88
2022-08-26T06:59:35.757Z,4.47
2022-08-26T07:02:06.151Z,4.07
2022-08-26T07:04:36.196Z,4.18
2022-08-26T07:07:04.467Z,4.03
2022-08-26T07:09:35.413Z,3.92
2022-08-26T07:12:06.859Z,4.00
2022-08-26T07:14:38.221Z,4.00
2022-08-26T07:17:11.011Z,3.95
2022-08-26T07:19:41.920Z,3.63
2022-08-26T07:22:11.061Z,4.05
2022-08-26T07:24:42.510Z,3.78
2022-08-26T07:27:13.681Z,4.38
2022-08-26T07:29:43.722Z,4.70
2022-08-26T07:32:14.413Z,4.13
2022-08-26T07:34:43.595Z,4.72
2022-08-26T07:37:12.372Z,4.28
2022-08-26T07:39:43.223Z,4.50
2022-08-26T07:42:13.339Z,4.50
2022-08-26T07:44:42.432Z,4.50
2022-08-26T07:47:24.860Z,5.07
2022-08-26T07:52:26.236Z,4.28
2022-08-26T07:54:56.827Z,4.93
2022-08-26T07:57:25.031Z,4.32
2022-08-26T07:59:53.924Z,4.00
2022-08-26T08:02:24.139Z,4.30
2022-08-26T08:04:53.278Z,3.80
2022-08-26T08:07:21.637Z,4.18
2022-08-26T08:10:11.656Z,4.00
2022-08-26T08:12:39.900Z,3.85
2022-08-26T08:15:09.804Z,4.43
2022-08-26T08:17:37.998Z,3.78
2022-08-26T08:20:07.725Z,3.72
2022-08-26T08:22:35.652Z,4.35
2022-08-26T08:25:08.065Z,4.28
2022-08-26T08:27:39.444Z,4.85
2022-08-26T08:30:10.232Z,4.65
2022-08-26T08:32:43.630Z,3.50
2022-08-26T08:35:14.144Z,4.20
2022-08-26T08:37:43.856Z,3.90
2022-08-26T08:40:18.423Z,3.60
2022-08-26T08:45:36.629Z,3.60
2022-08-26T08:48:09.984Z,3.42
2022-08-26T08:50:44.745Z,3.70
2022-08-26T08:53:17.536Z,3.97
2022-08-26T08:55:59.404Z,3.85
2022-08-26T08:58:40.675Z,3.63
2022-08-26T09:01:17.869Z,3.65
2022-08-26T09:03:57.269Z,3.60
2022-08-26T09:06:27.635Z,3.53
2022-08-26T09:08:57.487Z,3.53
2022-08-26T09:11:25.780Z,3.55
2022-08-26T09:13:56.903Z,3.75
2022-08-26T09:16:36.910Z,3.15
2022-08-26T09:19:14.629Z,3.83
2022-08-26T09:21:47.324Z,3.10
2022-08-26T09:24:22.267Z,2.90
2022-08-26T09:26:52.634Z,3.08
2022-08-26T09:29:25.117Z,3.35
2022-08-26T09:31:56.656Z,2.85
2022-08-26T09:34:26.688Z,3.40
2022-08-26T09:36:56.212Z,3.30
2022-08-26T09:39:34.737Z,3.70
2022-08-26T09:42:11.815Z,3.17
2022-08-26T09:45:03.734Z,3.40
2022-08-26T09:47:34.205Z,3.10
2022-08-26T09:50:12.429Z,3.20
2022-08-26T09:52:42.847Z,3.22
2022-08-26T09:55:14.707Z,3.30
2022-08-26T09:57:49.720Z,3.55
2022-08-26T10:00:31.008Z,3.00
2022-08-26T10:03:01.018Z,3.55
2022-08-26T10:05:33.382Z,3.60
2022-08-26T10:08:02.232Z,3.40
2022-08-26T10:10:34.864Z,2.97
2022-08-26T10:13:11.005Z,3.30
2022-08-26T10:15:50.648Z,3.40
2022-08-26T10:18:25.232Z,2.78
2022-08-26T10:20:59.253Z,2.75
2022-08-26T10:23:32.510Z,3.33
2022-08-26T10:26:09.887Z,2.75
2022-08-26T10:28:45.115Z,3.78
2022-08-26T10:31:27.892Z,3.08
2022-08-26T10:34:00.494Z,3.35
2022-08-26T10:37:14.339Z,3.45
2022-08-26T10:39:46.178Z,3.15
2022-08-26T10:42:21.819Z,3.13
2022-08-26T10:44:53.444Z,3.00
2022-08-26T10:47:35.280Z,3.35
2022-08-26T10:50:04.724Z,3.38
2022-08-26T10:52:52.791Z,3.47
2022-08-26T10:55:25.657Z,3.17
2022-08-26T10:58:04.756Z,3.33
2022-08-26T11:00:58.141Z,3.25
2022-08-26T11:03:38.937Z,3.33
2022-08-26T11:06:24.892Z,3.30
2022-08-26T11:08:54.684Z,3.08
2022-08-26T11:11:51.531Z,3.55
2022-08-26T11:14:53.052Z,3.10
2022-08-26T11:17:56.716Z,2.80
2022-08-26T11:20:39.334Z,2.90
2022-08-26T11:23:50.495Z,3.50
2022-08-26T11:26:43.141Z,3.28
2022-08-26T11:29:13.531Z,3.30
2022-08-26T11:31:59.990Z,3.05
2022-08-26T11:34:54.200Z,3.05
2022-08-26T11:37:32.251Z,3.03
2022-08-26T11:40:03.901Z,3.25
2022-08-26T11:42:37.886Z,3.25
2022-08-26T11:45:20.088Z,3.85
2022-08-26T11:47:49.327Z,3.70
2022-08-26T11:50:20.747Z,3.25
2022-08-26T11:53:07.790Z,3.05
2022-08-26T11:55:43.110Z,3.35
2022-08-26T11:58:13.798Z,3.35
2022-08-26T12:00:52.529Z,3.20
2022-08-26T12:03:25.129Z,3.38
2022-08-26T12:05:55.197Z,3.47
2022-08-26T12:08:31.368Z,3.17
2022-08-26T12:11:09.802Z,3.25
2022-08-26T12:13:39.372Z,3.72
2022-08-26T12:16:08.298Z,3.53
2022-08-26T12:18:38.308Z,3.45
2022-08-26T12:21:16.181Z,3.42
2022-08-26T12:23:49.911Z,3.67
2022-08-26T12:26:25.502Z,3.85
2022-08-26T12:28:57.534Z,3.58
2022-08-26T12:31:29.726Z,3.55
2022-08-26T12:33:59.640Z,3.58
2022-08-26T12:36:32.801Z,3.40
2022-08-26T12:39:10.079Z,3.60
2022-08-26T12:41:45.133Z,3.75
2022-08-26T12:44:35.373Z,3.58
2022-08-26T12:47:08.447Z,3.70
2022-08-26T12:49:37.682Z,3.35
2022-08-26T12:52:06.805Z,3.58
2022-08-26T12:54:56.867Z,3.20
2022-08-26T12:57:29.608Z,3.72
2022-08-26T13:00:28.320Z,3.50
2022-08-26T13:02:57.717Z,3.80
2022-08-26T13:05:29.341Z,3.90
2022-08-26T13:08:15.032Z,3.85
2022-08-26T13:10:46.832Z,3.42
2022-08-26T13:13:15.510Z,4.00
2022-08-26T13:15:45.116Z,3.90
2022-08-26T13:18:13.260Z,3.42
2022-08-26T13:20:44.323Z,3.60
2022-08-26T13:23:13.675Z,3.80
2022-08-26T13:25:46.637Z,4.20
2022-08-26T13:28:15.092Z,4.20
2022-08-26T13:30:47.218Z,4.07
2022-08-26T13:33:18.423Z,4.15
2022-08-26T13:35:46.785Z,3.85
2022-08-26T13:38:18.572Z,3.60
2022-08-26T13:41:04.151Z,3.58
2022-08-26T13:43:32.602Z,3.83
2022-08-26T13:46:02.070Z,3.92
2022-08-26T13:48:31.357Z,3.70
2022-08-26T13:50:59.705Z,3.80
2022-08-26T13:53:29.689Z,3.63
2022-08-26T13:55:58.988Z,3.60
2022-08-26T13:58:29.307Z,4.10
2022-08-26T14:00:59.094Z,4.50
2022-08-26T14:03:27.627Z,3.67
2022-08-26T14:05:56.164Z,3.95
2022-08-26T14:08:25.399Z,4.38
2022-08-26T14:10:53.972Z,4.25
2022-08-26T14:13:22.091Z,4.35
2022-08-26T14:15:52.860Z,3.50
2022-08-26T14:18:24.234Z,4.00
2022-08-26T14:20:55.501Z,4.07
2022-08-26T14:23:23.953Z,3.47
2022-08-26T14:25:52.892Z,3.53
2022-08-26T14:28:21.244Z,3.53
2022-08-26T14:30:55.399Z,3.65
2022-08-26T14:33:27.899Z,4.22
2022-08-26T14:36:16.935Z,4.55
2022-08-26T14:38:45.469Z,4.10
2022-08-26T14:41:15.585Z,3.55
2022-08-26T14:43:48.954Z,3.75
2022-08-26T14:46:19.580Z,4.05
2022-08-26T14:48:48.070Z,3.80
2022-08-26T14:51:16.095Z,3.60
2022-08-26T14:54:01.264Z,3.83
2022-08-26T14:56:31.730Z,3.50
2022-08-26T14:58:59.979Z,3.60
2022-08-26T15:01:31.082Z,3.30
2022-08-26T15:03:59.733Z,3.45
2022-08-26T15:06:28.516Z,3.70
2022-08-26T15:08:56.724Z,3.65
2022-08-26T15:11:25.977Z,3.60
2022-08-26T15:13:54.402Z,3.83
2022-08-26T15:16:22.892Z,3.50
2022-08-26T15:18:53.250Z,3.67
2022-08-26T15:21:22.638Z,3.50
2022-08-26T15:23:54.085Z,3.72
2022-08-26T15:26:23.894Z,3.42
2022-08-26T15:28:52.822Z,4.45
2022-08-26T15:31:26.681Z,3.95
2022-08-26T15:33:59.545Z,3.83
2022-08-26T15:36:29.510Z,3.85
2022-08-26T15:38:59.453Z,3.88
2022-08-26T15:41:28.486Z,3.83
2022-08-26T15:43:56.966Z,3.38
2022-08-26T15:46:25.798Z,3.70
2022-08-26T15:48:55.646Z,3.53
2022-08-26T15:51:26.149Z,3.90
2022-08-26T15:53:58.023Z,3.42
2022-08-26T15:56:27.305Z,3.20
2022-08-26T15:58:57.027Z,3.20
2022-08-26T16:01:27.387Z,3.47
2022-08-26T16:03:57.654Z,3.58
2022-08-26T16:06:28.661Z,3.67
2022-08-26T16:08:58.202Z,3.75
2022-08-26T16:11:27.359Z,3.10
2022-08-26T16:13:55.600Z,3.55
2022-08-26T16:16:25.001Z,3.55
2022-08-26T16:18:53.660Z,3.60
2022-08-26T16:21:25.657Z,3.35
2022-08-26T16:23:54.142Z,3.20
2022-08-26T16:26:25.534Z,3.22
2022-08-26T16:28:53.951Z,3.92
2022-08-26T16:31:22.777Z,3.47
2022-08-26T16:33:51.544Z,3.67
2022-08-26T16:36:20.021Z,3.22
2022-08-26T16:38:53.588Z,3.88
2022-08-26T16:41:22.665Z,3.70
2022-08-26T16:43:51.312Z,3.90
2022-08-26T16:46:22.302Z,3.13
2022-08-26T16:48:50.427Z,3.65
2022-08-26T16:51:23.060Z,3.92
2022-08-26T16:53:53.657Z,3.88
2022-08-26T16:56:23.878Z,4.00
2022-08-26T16:59:01.736Z,3.38
2022-08-26T17:01:30.768Z,3.80
2022-08-26T17:03:58.884Z,4.28
2022-08-26T17:06:26.973Z,4.40
2022-08-26T17:08:56.596Z,3.97
2022-08-26T17:11:24.726Z,4.30
2022-08-26T17:13:53.681Z,4.32
2022-08-26T17:16:26.624Z,4.13
2022-08-26T17:18:56.326Z,3.70
2022-08-26T17:21:25.238Z,3.70
2022-08-26T17:23:54.269Z,3.70
2022-08-26T17:26:23.925Z,4.05
2022-08-26T17:28:52.491Z,4.40
2022-08-26T17:31:21.679Z,3.80
2022-08-26T17:33:53.415Z,4.20
2022-08-26T17:36:28.111Z,4.07
2022-08-26T17:38:58.142Z,3.72
2022-08-26T17:41:28.390Z,3.92
2022-08-26T17:43:57.261Z,4.18
2022-08-26T17:46:25.887Z,4.60
2022-08-26T17:48:54.289Z,4.57
2022-08-26T17:51:23.588Z,4.65
2022-08-26T17:53:51.808Z,3.95
2022-08-26T17:56:24.058Z,4.13
2022-08-26T17:58:55.141Z,3.95
2022-08-26T18:01:27.229Z,4.03
2022-08-26T18:04:00.333Z,3.88
2022-08-26T18:06:30.468Z,4.13
2022-08-26T18:08:58.602Z,4.07
2022-08-26T18:11:27.462Z,4.63
2022-08-26T18:13:57.897Z,4.10
2022-08-26T18:16:26.388Z,4.05
2022-08-26T18:18:55.210Z,4.13
2022-08-26T18:21:28.215Z,3.80
2022-08-26T18:23:56.886Z,3.95
2022-08-26T18:26:28.570Z,4.10
2022-08-26T18:28:58.650Z,3.90
2022-08-26T18:31:27.758Z,4.50
2022-08-26T18:33:56.529Z,4.15
2022-08-26T18:36:27.433Z,4.20
2022-08-26T18:38:56.531Z,4.40
2022-08-26T18:41:28.889Z,4.60
2022-08-26T18:43:59.402Z,4.40
2022-08-26T18:46:29.033Z,4.65
2022-08-26T18:48:58.125Z,4.30
2022-08-26T18:51:29.722Z,5.25
2022-08-26T18:53:58.764Z,5.05
2022-08-26T18:56:27.036Z,4.30
2022-08-26T18:58:55.498Z,3.83
2022-08-26T19:01:27.584Z,4.30
2022-08-26T19:03:56.599Z,4.50
2022-08-26T19:06:26.747Z,4.80
2022-08-26T19:08:55.817Z,4.45
2022-08-26T19:11:31.556Z,4.47
2022-08-26T19:14:01.438Z,4.95
2022-08-26T19:16:31.802Z,4.80
2022-08-26T19:19:01.740Z,4.57
2022-08-26T19:21:30.685Z,4.05
2022-08-26T19:24:00.044Z,4.63
2022-08-26T19:26:29.462Z,5.00
2022-08-26T19:28:57.793Z,4.07
2022-08-26T19:31:26.446Z,4.75
2022-08-26T19:33:56.826Z,4.18
2022-08-26T19:36:27.138Z,4.43
2022-08-26T19:38:56.037Z,4.40
2022-08-26T19:41:36.811Z,4.90
2022-08-26T19:44:09.805Z,4.20
2022-08-26T19:49:13.762Z,4.40
2022-08-26T19:51:41.913Z,4.60
2022-08-26T19:54:10.327Z,4.32
2022-08-26T19:56:38.627Z,4.88
2022-08-26T19:59:06.788Z,4.60
2022-08-26T20:01:34.844Z,4.57
2022-08-26T20:04:04.326Z,4.53
2022-08-26T20:06:34.373Z,4.90
2022-08-26T20:09:02.451Z,4.95
2022-08-26T20:11:31.223Z,4.50
2022-08-26T20:14:00.638Z,5.30
2022-08-26T20:16:28.859Z,5.30
2022-08-26T20:19:14.037Z,5.03
2022-08-26T20:21:44.186Z,5.07
2022-08-26T20:24:15.627Z,4.93
2022-08-26T20:26:45.257Z,5.25
2022-08-26T20:29:15.086Z,5.53
2022-08-26T20:31:45.132Z,5.28
2022-08-26T20:34:14.641Z,5.35
2022-08-26T20:36:45.200Z,5.50
2022-08-26T20:39:14.296Z,5.72
2022-08-26T20:41:42.815Z,5.28
2022-08-26T20:44:11.378Z,5.43
2022-08-26T20:46:39.379Z,5.65
2022-08-26T20:49:08.059Z,5.95
2022-08-26T20:51:38.677Z,5.32
2022-08-26T20:54:08.364Z,5.28
2022-08-26T20:56:37.771Z,4.88
2022-08-26T20:59:08.244Z,5.63
2022-08-26T21:01:41.930Z,5.80
2022-08-26T21:04:13.261Z,5.93
2022-08-26T21:06:42.327Z,5.97
2022-08-26T21:09:22.404Z,5.00
2022-08-26T21:11:51.374Z,5.57
2022-08-26T21:14:20.721Z,5.15
2022-08-26T21:16:49.081Z,5.88
2022-08-26T21:19:19.715Z,6.07
2022-08-26T21:21:49.110Z,5.97
2022-08-26T21:24:17.846Z,5.65
2022-08-26T21:26:47.762Z,6.00
2022-08-26T21:29:16.366Z,4.97
2022-08-26T21:31:46.673Z,5.00
2022-08-26T21:34:15.511Z,5.85
2022-08-26T21:36:43.647Z,5.88
2022-08-26T21:39:12.407Z,5.05
2022-08-26T21:41:41.023Z,5.75
2022-08-26T21:44:11.834Z,6.20
2022-08-26T21:46:40.006Z,6.13
2022-08-26T21:49:10.706Z,5.68
2022-08-26T21:51:41.603Z,5.45
2022-08-26T21:54:11.573Z,5.57
2022-08-26T21:56:44.335Z,5.90
2022-08-26T21:59:15.312Z,5.30
2022-08-26T22:01:43.429Z,5.95
2022-08-26T22:04:12.087Z,5.63
2022-08-26T22:06:45.059Z,5.97
2022-08-26T22:09:14.470Z,5.55
2022-08-26T22:11:43.193Z,6.20
2022-08-26T22:14:12.360Z,6.60
2022-08-26T22:16:42.062Z,6.05
2022-08-26T22:19:20.188Z,6.45
2022-08-26T22:21:50.300Z,6.32
2022-08-26T22:24:19.029Z,6.18
2022-08-26T22:26:48.142Z,6.38
2022-08-26T22:29:16.831Z,6.20
2022-08-26T22:31:46.899Z,6.40
2022-08-26T22:34:17.595Z,7.07
2022-08-26T22:36:47.662Z,6.80
2022-08-26T22:39:17.877Z,6.38
2022-08-26T22:41:48.734Z,6.22
2022-08-26T22:44:17.856Z,6.60
2022-08-26T22:46:49.368Z,6.25
2022-08-26T22:49:17.964Z,7.45
2022-08-26T22:51:46.648Z,6.25
2022-08-26T22:54:15.553Z,6.65
2022-08-26T22:56:44.365Z,6.40
2022-08-26T22:59:13.129Z,6.53
2022-08-26T23:01:44.806Z,6.40
2022-08-26T23:04:15.120Z,6.32
2022-08-26T23:06:47.611Z,6.97
2022-08-26T23:09:18.314Z,6.75
2022-08-26T23:11:48.905Z,6.53
2022-08-26T23:14:18.822Z,6.88
2022-08-26T23:16:47.642Z,6.90
2022-08-26T23:19:20.173Z,6.07
2022-08-26T23:21:49.493Z,6.90
2022-08-26T23:24:18.593Z,6.95
2022-08-26T23:26:47.420Z,6.70
2022-08-26T23:29:16.489Z,6.72
2022-08-26T23:31:44.695Z,7.00
2022-08-26T23:34:31.579Z,7.45
2022-08-26T23:37:01.639Z,6.80
2022-08-26T23:39:29.981Z,6.82
2022-08-26T23:41:58.306Z,7.47
2022-08-26T23:44:27.158Z,7.15
2022-08-26T23:46:55.974Z,6.55
2022-08-26T23:49:24.549Z,7.00
2022-08-26T23:52:09.978Z,7.05
2022-08-26T23:54:39.846Z,7.95
2022-08-26T23:57:09.505Z,7.15
2022-08-26T23:59:39.049Z,8.23
